In Rescue
 
Open Full Screen Window  High Contrast Mode
Wind Gusting 00 knots
11
May 25, 2022 11:05 PM EDT
Weather Information
Wind Direction
  140 °
Wind Speed
  11 kt (13 mph)
Wind Gust
  00 kt (0 mph)
Altimeter
29.98 in
Visibility
10 SM
Temperature
22° C
72° F
Dewpoint
17° C
63° F
Humidity
73%
1hr Rain Fall
00.00 in.
24hr Rain Fall
00.00 in.
Sky Condition
Clear
VFR

METAR KDLZ 260305Z AUTO 14011KT 10SM CLR 22/17 A2998 RMK AO2 LTG DSNT N

FAA Disclaimer: The data displayed is for advisory purposes only and is not to be used for flight planning or operations.